<?xml version="1.0" encoding="UTF-8" standalone="no" ?>
<gpx xmlns="http://www.topografix.com/GPX/1/1" xmlns:xsi="http://www.w3.org/2001/XMLSchema-instance" xsi:schemaLocation="http://www.topografix.com/GPX/1/1 http://www.topografix.com/GPX/1/1/gpx.xsd" version="1.1" creator="VisuGPX - https://www.visugpx.com">
  <metadata>
    <name>E-Canal du Midi J4 Béteille Domaine Ginestet</name>
    <desc><![CDATA[E-Canal du Midi J4 Béteille Domaine Ginestet
Type sol mixte à majorité sentier]]></desc>
  </metadata>
  <trk>
    <name><![CDATA[13354118-Breteille-Ginestet]]></name>
    <trkseg>
      <trkpt lat="43.23546" lon="2.18018">
        <ele>126</ele>
        <time>2021-07-07T14:45:26Z</time>
      </trkpt>
      <trkpt lat="43.23559" lon="2.18032">
        <ele>125</ele>
        <time>2021-07-07T14:45:29Z</time>
      </trkpt>
      <trkpt lat="43.23519" lon="2.18249">
        <ele>128</ele>
        <time>2021-07-07T14:45:58Z</time>
      </trkpt>
      <trkpt lat="43.23464" lon="2.18466">
        <ele>130</ele>
        <time>2021-07-07T14:46:28Z</time>
      </trkpt>
      <trkpt lat="43.23468" lon="2.18509">
        <ele>129</ele>
        <time>2021-07-07T14:46:33Z</time>
      </trkpt>
      <trkpt lat="43.23547" lon="2.18667">
        <ele>124</ele>
        <time>2021-07-07T14:46:58Z</time>
      </trkpt>
      <trkpt lat="43.23571" lon="2.18762">
        <ele>123</ele>
        <time>2021-07-07T14:47:11Z</time>
      </trkpt>
      <trkpt lat="43.23574" lon="2.18903">
        <ele>123</ele>
        <time>2021-07-07T14:47:30Z</time>
      </trkpt>
      <trkpt lat="43.23527" lon="2.19034">
        <ele>124</ele>
        <time>2021-07-07T14:47:48Z</time>
      </trkpt>
      <trkpt lat="43.235" lon="2.1913">
        <ele>124</ele>
        <time>2021-07-07T14:48:02Z</time>
      </trkpt>
      <trkpt lat="43.23492" lon="2.19217">
        <ele>124</ele>
        <time>2021-07-07T14:48:13Z</time>
      </trkpt>
      <trkpt lat="43.23519" lon="2.1942">
        <ele>125</ele>
        <time>2021-07-07T14:48:40Z</time>
      </trkpt>
      <trkpt lat="43.23511" lon="2.1958">
        <ele>125</ele>
        <time>2021-07-07T14:49:01Z</time>
      </trkpt>
      <trkpt lat="43.23485" lon="2.19689">
        <ele>125</ele>
        <time>2021-07-07T14:49:16Z</time>
      </trkpt>
      <trkpt lat="43.23381" lon="2.19995">
        <ele>123</ele>
        <time>2021-07-07T14:49:59Z</time>
      </trkpt>
      <trkpt lat="43.23322" lon="2.20206">
        <ele>124</ele>
        <time>2021-07-07T14:50:29Z</time>
      </trkpt>
      <trkpt lat="43.23309" lon="2.20464">
        <ele>124</ele>
        <time>2021-07-07T14:51:02Z</time>
      </trkpt>
      <trkpt lat="43.23412" lon="2.2067">
        <ele>128</ele>
        <time>2021-07-07T14:51:35Z</time>
      </trkpt>
      <trkpt lat="43.23556" lon="2.20661">
        <ele>125</ele>
        <time>2021-07-07T14:52:00Z</time>
      </trkpt>
      <trkpt lat="43.23765" lon="2.20711">
        <ele>123</ele>
        <time>2021-07-07T14:52:38Z</time>
      </trkpt>
      <trkpt lat="43.23803" lon="2.20749">
        <ele>122</ele>
        <time>2021-07-07T14:52:46Z</time>
      </trkpt>
      <trkpt lat="43.23801" lon="2.20813">
        <ele>123</ele>
        <time>2021-07-07T14:52:55Z</time>
      </trkpt>
      <trkpt lat="43.23679" lon="2.21269">
        <ele>126</ele>
        <time>2021-07-07T14:53:58Z</time>
      </trkpt>
      <trkpt lat="43.23624" lon="2.21332">
        <ele>127</ele>
        <time>2021-07-07T14:54:10Z</time>
      </trkpt>
      <trkpt lat="43.23531" lon="2.21453">
        <ele>124</ele>
        <time>2021-07-07T14:54:33Z</time>
      </trkpt>
      <trkpt lat="43.23521" lon="2.21546">
        <ele>124</ele>
        <time>2021-07-07T14:54:45Z</time>
      </trkpt>
      <trkpt lat="43.23583" lon="2.21612">
        <ele>124</ele>
        <time>2021-07-07T14:54:59Z</time>
      </trkpt>
      <trkpt lat="43.23676" lon="2.21605">
        <ele>121</ele>
        <time>2021-07-07T14:55:16Z</time>
      </trkpt>
      <trkpt lat="43.23693" lon="2.21696">
        <ele>123</ele>
        <time>2021-07-07T14:55:28Z</time>
      </trkpt>
      <trkpt lat="43.23646" lon="2.21819">
        <ele>124</ele>
        <time>2021-07-07T14:55:46Z</time>
      </trkpt>
      <trkpt lat="43.23635" lon="2.21899">
        <ele>126</ele>
        <time>2021-07-07T14:55:57Z</time>
      </trkpt>
      <trkpt lat="43.23732" lon="2.2194">
        <ele>123</ele>
        <time>2021-07-07T14:56:15Z</time>
      </trkpt>
      <trkpt lat="43.23777" lon="2.22007">
        <ele>122</ele>
        <time>2021-07-07T14:56:26Z</time>
      </trkpt>
      <trkpt lat="43.23796" lon="2.22155">
        <ele>123</ele>
        <time>2021-07-07T14:56:46Z</time>
      </trkpt>
      <trkpt lat="43.23738" lon="2.22298">
        <ele>125</ele>
        <time>2021-07-07T14:57:07Z</time>
      </trkpt>
      <trkpt lat="43.23644" lon="2.22395">
        <ele>124</ele>
        <time>2021-07-07T14:57:28Z</time>
      </trkpt>
      <trkpt lat="43.23491" lon="2.22541">
        <ele>124</ele>
        <time>2021-07-07T14:58:01Z</time>
      </trkpt>
      <trkpt lat="43.23253" lon="2.229">
        <ele>125</ele>
        <time>2021-07-07T14:59:04Z</time>
      </trkpt>
      <trkpt lat="43.23341" lon="2.23078">
        <ele>122</ele>
        <time>2021-07-07T14:59:32Z</time>
      </trkpt>
      <trkpt lat="43.23375" lon="2.23142">
        <ele>121</ele>
        <time>2021-07-07T14:59:42Z</time>
      </trkpt>
      <trkpt lat="43.2336" lon="2.23262">
        <ele>123</ele>
        <time>2021-07-07T14:59:58Z</time>
      </trkpt>
      <trkpt lat="43.23277" lon="2.2338">
        <ele>123</ele>
        <time>2021-07-07T15:00:19Z</time>
      </trkpt>
      <trkpt lat="43.23194" lon="2.23479">
        <ele>124</ele>
        <time>2021-07-07T15:00:39Z</time>
      </trkpt>
      <trkpt lat="43.22937" lon="2.23966">
        <ele>126</ele>
        <time>2021-07-07T15:01:57Z</time>
      </trkpt>
      <trkpt lat="43.22917" lon="2.24137">
        <ele>125</ele>
        <time>2021-07-07T15:02:19Z</time>
      </trkpt>
      <trkpt lat="43.22939" lon="2.24309">
        <ele>124</ele>
        <time>2021-07-07T15:02:42Z</time>
      </trkpt>
      <trkpt lat="43.22922" lon="2.24462">
        <ele>125</ele>
        <time>2021-07-07T15:03:02Z</time>
      </trkpt>
      <trkpt lat="43.22925" lon="2.24524">
        <ele>125</ele>
        <time>2021-07-07T15:03:10Z</time>
      </trkpt>
      <trkpt lat="43.22981" lon="2.24551">
        <ele>124</ele>
        <time>2021-07-07T15:03:21Z</time>
      </trkpt>
      <trkpt lat="43.23142" lon="2.24447">
        <ele>123</ele>
        <time>2021-07-07T15:03:52Z</time>
      </trkpt>
      <trkpt lat="43.23362" lon="2.24378">
        <ele>123</ele>
        <time>2021-07-07T15:04:32Z</time>
      </trkpt>
      <trkpt lat="43.23444" lon="2.24433">
        <ele>122</ele>
        <time>2021-07-07T15:04:49Z</time>
      </trkpt>
      <trkpt lat="43.23517" lon="2.24644">
        <ele>121</ele>
        <time>2021-07-07T15:05:19Z</time>
      </trkpt>
      <trkpt lat="43.23557" lon="2.24996">
        <ele>122</ele>
        <time>2021-07-07T15:06:05Z</time>
      </trkpt>
      <trkpt lat="43.2353" lon="2.25161">
        <ele>123</ele>
        <time>2021-07-07T15:06:27Z</time>
      </trkpt>
      <trkpt lat="43.2354" lon="2.25248">
        <ele>122</ele>
        <time>2021-07-07T15:06:38Z</time>
      </trkpt>
      <trkpt lat="43.23636" lon="2.2527">
        <ele>122</ele>
        <time>2021-07-07T15:06:56Z</time>
      </trkpt>
      <trkpt lat="43.23834" lon="2.25125">
        <ele>124</ele>
        <time>2021-07-07T15:07:36Z</time>
      </trkpt>
      <trkpt lat="43.23939" lon="2.25091">
        <ele>122</ele>
        <time>2021-07-07T15:07:55Z</time>
      </trkpt>
      <trkpt lat="43.23986" lon="2.25167">
        <ele>123</ele>
        <time>2021-07-07T15:08:08Z</time>
      </trkpt>
      <trkpt lat="43.23984" lon="2.25249">
        <ele>123</ele>
        <time>2021-07-07T15:08:18Z</time>
      </trkpt>
      <trkpt lat="43.23994" lon="2.25327">
        <ele>122</ele>
        <time>2021-07-07T15:08:29Z</time>
      </trkpt>
      <trkpt lat="43.24053" lon="2.25386">
        <ele>121</ele>
        <time>2021-07-07T15:08:42Z</time>
      </trkpt>
      <trkpt lat="43.24098" lon="2.25375">
        <ele>120</ele>
        <time>2021-07-07T15:08:50Z</time>
      </trkpt>
      <trkpt lat="43.24138" lon="2.25295">
        <ele>121</ele>
        <time>2021-07-07T15:09:02Z</time>
      </trkpt>
      <trkpt lat="43.24171" lon="2.25219">
        <ele>121</ele>
        <time>2021-07-07T15:09:14Z</time>
      </trkpt>
      <trkpt lat="43.24214" lon="2.25199">
        <ele>121</ele>
        <time>2021-07-07T15:09:22Z</time>
      </trkpt>
      <trkpt lat="43.24255" lon="2.2524">
        <ele>121</ele>
        <time>2021-07-07T15:09:31Z</time>
      </trkpt>
      <trkpt lat="43.24247" lon="2.25324">
        <ele>120</ele>
        <time>2021-07-07T15:09:42Z</time>
      </trkpt>
      <trkpt lat="43.24246" lon="2.2539">
        <ele>121</ele>
        <time>2021-07-07T15:09:51Z</time>
      </trkpt>
      <trkpt lat="43.24285" lon="2.25462">
        <ele>121</ele>
        <time>2021-07-07T15:10:02Z</time>
      </trkpt>
      <trkpt lat="43.24301" lon="2.25534">
        <ele>121</ele>
        <time>2021-07-07T15:10:12Z</time>
      </trkpt>
      <trkpt lat="43.24305" lon="2.25641">
        <ele>121</ele>
        <time>2021-07-07T15:10:26Z</time>
      </trkpt>
      <trkpt lat="43.2428" lon="2.25846">
        <ele>121</ele>
        <time>2021-07-07T15:10:53Z</time>
      </trkpt>
      <trkpt lat="43.24241" lon="2.25978">
        <ele>123</ele>
        <time>2021-07-07T15:11:11Z</time>
      </trkpt>
      <trkpt lat="43.24197" lon="2.26094">
        <ele>123</ele>
        <time>2021-07-07T15:11:28Z</time>
      </trkpt>
      <trkpt lat="43.24171" lon="2.26176">
        <ele>123</ele>
        <time>2021-07-07T15:11:40Z</time>
      </trkpt>
      <trkpt lat="43.24179" lon="2.26232">
        <ele>123</ele>
        <time>2021-07-07T15:11:47Z</time>
      </trkpt>
      <trkpt lat="43.24245" lon="2.2643">
        <ele>120</ele>
        <time>2021-07-07T15:12:15Z</time>
      </trkpt>
      <trkpt lat="43.24268" lon="2.26548">
        <ele>120</ele>
        <time>2021-07-07T15:12:31Z</time>
      </trkpt>
      <trkpt lat="43.24309" lon="2.2666">
        <ele>121</ele>
        <time>2021-07-07T15:12:47Z</time>
      </trkpt>
      <trkpt lat="43.24365" lon="2.26636">
        <ele>121</ele>
        <time>2021-07-07T15:12:58Z</time>
      </trkpt>
      <trkpt lat="43.24426" lon="2.2658">
        <ele>121</ele>
        <time>2021-07-07T15:13:11Z</time>
      </trkpt>
      <trkpt lat="43.2448" lon="2.26568">
        <ele>119</ele>
        <time>2021-07-07T15:13:21Z</time>
      </trkpt>
      <trkpt lat="43.24498" lon="2.26615">
        <ele>120</ele>
        <time>2021-07-07T15:13:28Z</time>
      </trkpt>
      <trkpt lat="43.24475" lon="2.26765">
        <ele>122</ele>
        <time>2021-07-07T15:13:47Z</time>
      </trkpt>
      <trkpt lat="43.24486" lon="2.27064">
        <ele>120</ele>
        <time>2021-07-07T15:14:26Z</time>
      </trkpt>
      <trkpt lat="43.24453" lon="2.27213">
        <ele>123</ele>
        <time>2021-07-07T15:14:46Z</time>
      </trkpt>
      <trkpt lat="43.24435" lon="2.27386">
        <ele>123</ele>
        <time>2021-07-07T15:15:09Z</time>
      </trkpt>
      <trkpt lat="43.2442" lon="2.27607">
        <ele>122</ele>
        <time>2021-07-07T15:15:38Z</time>
      </trkpt>
      <trkpt lat="43.24354" lon="2.27783">
        <ele>120</ele>
        <time>2021-07-07T15:16:04Z</time>
      </trkpt>
      <trkpt lat="43.24216" lon="2.28088">
        <ele>121</ele>
        <time>2021-07-07T15:16:50Z</time>
      </trkpt>
      <trkpt lat="43.2412" lon="2.28311">
        <ele>121</ele>
        <time>2021-07-07T15:17:24Z</time>
      </trkpt>
      <trkpt lat="43.24038" lon="2.28454">
        <ele>120</ele>
        <time>2021-07-07T15:17:47Z</time>
      </trkpt>
      <trkpt lat="43.23723" lon="2.28854">
        <ele>113</ele>
        <time>2021-07-07T15:19:04Z</time>
      </trkpt>
      <trkpt lat="43.23162" lon="2.2952">
        <ele>111</ele>
        <time>2021-07-07T15:21:16Z</time>
      </trkpt>
      <trkpt lat="43.23077" lon="2.29749">
        <ele>110</ele>
        <time>2021-07-07T15:21:49Z</time>
      </trkpt>
      <trkpt lat="43.22911" lon="2.30243">
        <ele>108</ele>
        <time>2021-07-07T15:22:59Z</time>
      </trkpt>
      <trkpt lat="43.22803" lon="2.30551">
        <ele>108</ele>
        <time>2021-07-07T15:23:44Z</time>
      </trkpt>
      <trkpt lat="43.22666" lon="2.30874">
        <ele>111</ele>
        <time>2021-07-07T15:24:32Z</time>
      </trkpt>
      <trkpt lat="43.22687" lon="2.31109">
        <ele>110</ele>
        <time>2021-07-07T15:25:03Z</time>
      </trkpt>
      <trkpt lat="43.2262" lon="2.3135">
        <ele>110</ele>
        <time>2021-07-07T15:25:36Z</time>
      </trkpt>
      <trkpt lat="43.22616" lon="2.3166">
        <ele>108</ele>
        <time>2021-07-07T15:26:16Z</time>
      </trkpt>
      <trkpt lat="43.22713" lon="2.31755">
        <ele>106</ele>
        <time>2021-07-07T15:26:38Z</time>
      </trkpt>
      <trkpt lat="43.22736" lon="2.32223">
        <ele>111</ele>
        <time>2021-07-07T15:27:39Z</time>
      </trkpt>
      <trkpt lat="43.22619" lon="2.32447">
        <ele>107</ele>
        <time>2021-07-07T15:28:14Z</time>
      </trkpt>
      <trkpt lat="43.22477" lon="2.32524">
        <ele>108</ele>
        <time>2021-07-07T15:28:41Z</time>
      </trkpt>
      <trkpt lat="43.22327" lon="2.3254">
        <ele>109</ele>
        <time>2021-07-07T15:29:08Z</time>
      </trkpt>
      <trkpt lat="43.22267" lon="2.32597">
        <ele>108</ele>
        <time>2021-07-07T15:29:21Z</time>
      </trkpt>
      <trkpt lat="43.22021" lon="2.32927">
        <ele>110</ele>
        <time>2021-07-07T15:30:22Z</time>
      </trkpt>
      <trkpt lat="43.21838" lon="2.33112">
        <ele>110</ele>
        <time>2021-07-07T15:31:03Z</time>
      </trkpt>
      <trkpt lat="43.21702" lon="2.33464">
        <ele>109</ele>
        <time>2021-07-07T15:31:54Z</time>
      </trkpt>
      <trkpt lat="43.21608" lon="2.33754">
        <ele>110</ele>
        <time>2021-07-07T15:32:36Z</time>
      </trkpt>
      <trkpt lat="43.21461" lon="2.34229">
        <ele>114</ele>
        <time>2021-07-07T15:33:43Z</time>
      </trkpt>
      <trkpt lat="43.21453" lon="2.34556">
        <ele>120</ele>
        <time>2021-07-07T15:34:25Z</time>
      </trkpt>
      <trkpt lat="43.21477" lon="2.34668">
        <ele>119</ele>
        <time>2021-07-07T15:34:40Z</time>
      </trkpt>
      <trkpt lat="43.21683" lon="2.3481">
        <ele>114</ele>
        <time>2021-07-07T15:35:21Z</time>
      </trkpt>
      <trkpt lat="43.21756" lon="2.34922">
        <ele>109</ele>
        <time>2021-07-07T15:35:41Z</time>
      </trkpt>
      <trkpt lat="43.2178" lon="2.35291">
        <ele>108</ele>
        <time>2021-07-07T15:36:29Z</time>
      </trkpt>
      <trkpt lat="43.21701" lon="2.35363">
        <ele>108</ele>
        <time>2021-07-07T15:36:46Z</time>
      </trkpt>
      <trkpt lat="43.21267" lon="2.35569">
        <ele>108</ele>
        <time>2021-07-07T15:38:07Z</time>
      </trkpt>
      <trkpt lat="43.21171" lon="2.35552">
        <ele>109</ele>
        <time>2021-07-07T15:38:24Z</time>
      </trkpt>
      <trkpt lat="43.21043" lon="2.35816">
        <ele>104</ele>
        <time>2021-07-07T15:39:06Z</time>
      </trkpt>
      <trkpt lat="43.21009" lon="2.35991">
        <ele>103</ele>
        <time>2021-07-07T15:39:29Z</time>
      </trkpt>
      <trkpt lat="43.20985" lon="2.36082">
        <ele>105</ele>
        <time>2021-07-07T15:39:42Z</time>
      </trkpt>
      <trkpt lat="43.20941" lon="2.36133">
        <ele>106</ele>
        <time>2021-07-07T15:39:52Z</time>
      </trkpt>
      <trkpt lat="43.20905" lon="2.36217">
        <ele>108</ele>
        <time>2021-07-07T15:40:04Z</time>
      </trkpt>
      <trkpt lat="43.2092" lon="2.36346">
        <ele>109</ele>
        <time>2021-07-07T15:40:21Z</time>
      </trkpt>
      <trkpt lat="43.20895" lon="2.3638">
        <ele>115</ele>
        <time>2021-07-07T15:40:28Z</time>
      </trkpt>
      <trkpt lat="43.20881" lon="2.36519">
        <ele>123</ele>
        <time>2021-07-07T15:40:46Z</time>
      </trkpt>
      <trkpt lat="43.2074" lon="2.36647">
        <ele>132</ele>
        <time>2021-07-07T15:41:16Z</time>
      </trkpt>
      <trkpt lat="43.20643" lon="2.36664">
        <ele>138</ele>
        <time>2021-07-07T15:41:33Z</time>
      </trkpt>
      <trkpt lat="43.20657" lon="2.36596">
        <ele>141</ele>
        <time>2021-07-07T15:41:43Z</time>
      </trkpt>
      <trkpt lat="43.20688" lon="2.36554">
        <ele>144</ele>
        <time>2021-07-07T15:41:50Z</time>
      </trkpt>
      <trkpt lat="43.20639" lon="2.36632">
        <ele>140</ele>
        <time>2021-07-07T15:42:04Z</time>
      </trkpt>
      <trkpt lat="43.20626" lon="2.36672">
        <ele>140</ele>
        <time>2021-07-07T15:42:09Z</time>
      </trkpt>
      <trkpt lat="43.20624" lon="2.36693">
        <ele>139</ele>
        <time>2021-07-07T15:42:12Z</time>
      </trkpt>
      <trkpt lat="43.20586" lon="2.36761">
        <ele>142</ele>
        <time>2021-07-07T15:42:23Z</time>
      </trkpt>
      <trkpt lat="43.20557" lon="2.36834">
        <ele>143</ele>
        <time>2021-07-07T15:42:34Z</time>
      </trkpt>
      <trkpt lat="43.20535" lon="2.36951">
        <ele>144</ele>
        <time>2021-07-07T15:42:50Z</time>
      </trkpt>
      <trkpt lat="43.20537" lon="2.37021">
        <ele>145</ele>
        <time>2021-07-07T15:42:59Z</time>
      </trkpt>
      <trkpt lat="43.20545" lon="2.37079">
        <ele>145</ele>
        <time>2021-07-07T15:43:06Z</time>
      </trkpt>
      <trkpt lat="43.20537" lon="2.37111">
        <ele>146</ele>
        <time>2021-07-07T15:43:11Z</time>
      </trkpt>
      <trkpt lat="43.20541" lon="2.37156">
        <ele>145</ele>
        <time>2021-07-07T15:43:17Z</time>
      </trkpt>
      <trkpt lat="43.20546" lon="2.37304">
        <ele>140</ele>
        <time>2021-07-07T15:43:36Z</time>
      </trkpt>
      <trkpt lat="43.20562" lon="2.37399">
        <ele>139</ele>
        <time>2021-07-07T15:43:49Z</time>
      </trkpt>
      <trkpt lat="43.20582" lon="2.37544">
        <ele>138</ele>
        <time>2021-07-07T15:44:08Z</time>
      </trkpt>
      <trkpt lat="43.20585" lon="2.3758">
        <ele>139</ele>
        <time>2021-07-07T15:44:12Z</time>
      </trkpt>
      <trkpt lat="43.20578" lon="2.37652">
        <ele>139</ele>
        <time>2021-07-07T15:44:22Z</time>
      </trkpt>
      <trkpt lat="43.20599" lon="2.37661">
        <ele>137</ele>
        <time>2021-07-07T15:44:26Z</time>
      </trkpt>
      <trkpt lat="43.20606" lon="2.37696">
        <ele>136</ele>
        <time>2021-07-07T15:44:30Z</time>
      </trkpt>
      <trkpt lat="43.2076" lon="2.37724">
        <ele>127</ele>
        <time>2021-07-07T15:44:58Z</time>
      </trkpt>
      <trkpt lat="43.20685" lon="2.38678">
        <ele>133</ele>
        <time>2021-07-07T15:47:02Z</time>
      </trkpt>
      <trkpt lat="43.20712" lon="2.38744">
        <ele>131</ele>
        <time>2021-07-07T15:47:12Z</time>
      </trkpt>
      <trkpt lat="43.2076" lon="2.38778">
        <ele>128</ele>
        <time>2021-07-07T15:47:22Z</time>
      </trkpt>
      <trkpt lat="43.20822" lon="2.3873">
        <ele>126</ele>
        <time>2021-07-07T15:47:35Z</time>
      </trkpt>
      <trkpt lat="43.20877" lon="2.38674">
        <ele>125</ele>
        <time>2021-07-07T15:47:47Z</time>
      </trkpt>
      <trkpt lat="43.20979" lon="2.38658">
        <ele>123</ele>
        <time>2021-07-07T15:48:05Z</time>
      </trkpt>
      <trkpt lat="43.21" lon="2.38734">
        <ele>124</ele>
        <time>2021-07-07T15:48:16Z</time>
      </trkpt>
      <trkpt lat="43.2104" lon="2.38776">
        <ele>123</ele>
        <time>2021-07-07T15:48:25Z</time>
      </trkpt>
      <trkpt lat="43.21058" lon="2.38959">
        <ele>132</ele>
        <time>2021-07-07T15:48:48Z</time>
      </trkpt>
      <trkpt lat="43.21059" lon="2.39089">
        <ele>136</ele>
        <time>2021-07-07T15:49:05Z</time>
      </trkpt>
      <trkpt lat="43.21107" lon="2.39273">
        <ele>135</ele>
        <time>2021-07-07T15:49:31Z</time>
      </trkpt>
      <trkpt lat="43.21113" lon="2.39406">
        <ele>132</ele>
        <time>2021-07-07T15:49:48Z</time>
      </trkpt>
      <trkpt lat="43.21103" lon="2.39709">
        <ele>130</ele>
        <time>2021-07-07T15:50:27Z</time>
      </trkpt>
      <trkpt lat="43.2109" lon="2.39887">
        <ele>126</ele>
        <time>2021-07-07T15:50:50Z</time>
      </trkpt>
      <trkpt lat="43.2102" lon="2.40475">
        <ele>124</ele>
        <time>2021-07-07T15:52:08Z</time>
      </trkpt>
      <trkpt lat="43.20995" lon="2.40655">
        <ele>120</ele>
        <time>2021-07-07T15:52:32Z</time>
      </trkpt>
      <trkpt lat="43.20966" lon="2.41323">
        <ele>99</ele>
        <time>2021-07-07T15:53:58Z</time>
      </trkpt>
      <trkpt lat="43.20966" lon="2.41444">
        <ele>96</ele>
        <time>2021-07-07T15:54:14Z</time>
      </trkpt>
      <trkpt lat="43.20995" lon="2.41494">
        <ele>98</ele>
        <time>2021-07-07T15:54:22Z</time>
      </trkpt>
      <trkpt lat="43.20988" lon="2.41717">
        <ele>93</ele>
        <time>2021-07-07T15:54:51Z</time>
      </trkpt>
      <trkpt lat="43.20991" lon="2.41984">
        <ele>89</ele>
        <time>2021-07-07T15:55:26Z</time>
      </trkpt>
      <trkpt lat="43.20859" lon="2.42026">
        <ele>98</ele>
        <time>2021-07-07T15:55:50Z</time>
      </trkpt>
      <trkpt lat="43.20737" lon="2.42082">
        <ele>104</ele>
        <time>2021-07-07T15:56:13Z</time>
      </trkpt>
      <trkpt lat="43.20685" lon="2.42256">
        <ele>102</ele>
        <time>2021-07-07T15:56:37Z</time>
      </trkpt>
      <trkpt lat="43.20643" lon="2.42262">
        <ele>104</ele>
        <time>2021-07-07T15:56:45Z</time>
      </trkpt>
      <trkpt lat="43.20618" lon="2.42503">
        <ele>101</ele>
        <time>2021-07-07T15:57:16Z</time>
      </trkpt>
      <trkpt lat="43.20596" lon="2.42602">
        <ele>102</ele>
        <time>2021-07-07T15:57:30Z</time>
      </trkpt>
      <trkpt lat="43.20635" lon="2.42761">
        <ele>97</ele>
        <time>2021-07-07T15:57:52Z</time>
      </trkpt>
      <trkpt lat="43.20608" lon="2.43119">
        <ele>93</ele>
        <time>2021-07-07T15:58:38Z</time>
      </trkpt>
      <trkpt lat="43.2061" lon="2.43542">
        <ele>90</ele>
        <time>2021-07-07T15:59:33Z</time>
      </trkpt>
      <trkpt lat="43.20941" lon="2.44103">
        <ele>85</ele>
        <time>2021-07-07T16:01:07Z</time>
      </trkpt>
      <trkpt lat="43.20934" lon="2.44215">
        <ele>87</ele>
        <time>2021-07-07T16:01:21Z</time>
      </trkpt>
      <trkpt lat="43.21023" lon="2.44353">
        <ele>92</ele>
        <time>2021-07-07T16:01:45Z</time>
      </trkpt>
      <trkpt lat="43.20974" lon="2.44598">
        <ele>96</ele>
        <time>2021-07-07T16:02:18Z</time>
      </trkpt>
      <trkpt lat="43.20755" lon="2.44904">
        <ele>90</ele>
        <time>2021-07-07T16:03:14Z</time>
      </trkpt>
      <trkpt lat="43.2055" lon="2.45001">
        <ele>84</ele>
        <time>2021-07-07T16:03:52Z</time>
      </trkpt>
      <trkpt lat="43.2035" lon="2.45501">
        <ele>88</ele>
        <time>2021-07-07T16:05:06Z</time>
      </trkpt>
      <trkpt lat="43.20033" lon="2.45915">
        <ele>89</ele>
        <time>2021-07-07T16:06:24Z</time>
      </trkpt>
      <trkpt lat="43.19866" lon="2.4617">
        <ele>84</ele>
        <time>2021-07-07T16:07:09Z</time>
      </trkpt>
      <trkpt lat="43.19777" lon="2.46537">
        <ele>82</ele>
        <time>2021-07-07T16:07:59Z</time>
      </trkpt>
      <trkpt lat="43.19725" lon="2.47232">
        <ele>85</ele>
        <time>2021-07-07T16:09:29Z</time>
      </trkpt>
      <trkpt lat="43.19568" lon="2.47859">
        <ele>89</ele>
        <time>2021-07-07T16:10:55Z</time>
      </trkpt>
      <trkpt lat="43.19434" lon="2.48359">
        <ele>84</ele>
        <time>2021-07-07T16:12:04Z</time>
      </trkpt>
      <trkpt lat="43.19367" lon="2.49161">
        <ele>80</ele>
        <time>2021-07-07T16:13:49Z</time>
      </trkpt>
      <trkpt lat="43.19516" lon="2.49355">
        <ele>83</ele>
        <time>2021-07-07T16:14:26Z</time>
      </trkpt>
      <trkpt lat="43.19475" lon="2.49661">
        <ele>78</ele>
        <time>2021-07-07T16:15:06Z</time>
      </trkpt>
      <trkpt lat="43.19486" lon="2.50146">
        <ele>78</ele>
        <time>2021-07-07T16:16:09Z</time>
      </trkpt>
      <trkpt lat="43.19579" lon="2.50498">
        <ele>84</ele>
        <time>2021-07-07T16:16:58Z</time>
      </trkpt>
      <trkpt lat="43.19873" lon="2.50819">
        <ele>81</ele>
        <time>2021-07-07T16:18:04Z</time>
      </trkpt>
      <trkpt lat="43.19917" lon="2.51038">
        <ele>81</ele>
        <time>2021-07-07T16:18:34Z</time>
      </trkpt>
      <trkpt lat="43.2011" lon="2.51341">
        <ele>80</ele>
        <time>2021-07-07T16:19:26Z</time>
      </trkpt>
      <trkpt lat="43.20223" lon="2.51611">
        <ele>81</ele>
        <time>2021-07-07T16:20:06Z</time>
      </trkpt>
      <trkpt lat="43.20183" lon="2.52155">
        <ele>81</ele>
        <time>2021-07-07T16:21:17Z</time>
      </trkpt>
      <trkpt lat="43.20097" lon="2.5267">
        <ele>79</ele>
        <time>2021-07-07T16:22:26Z</time>
      </trkpt>
      <trkpt lat="43.20105" lon="2.53223">
        <ele>79</ele>
        <time>2021-07-07T16:23:38Z</time>
      </trkpt>
      <trkpt lat="43.20194" lon="2.53347">
        <ele>83</ele>
        <time>2021-07-07T16:24:00Z</time>
      </trkpt>
      <trkpt lat="43.20172" lon="2.5349">
        <ele>80</ele>
        <time>2021-07-07T16:24:19Z</time>
      </trkpt>
      <trkpt lat="43.20287" lon="2.53866">
        <ele>80</ele>
        <time>2021-07-07T16:25:12Z</time>
      </trkpt>
      <trkpt lat="43.20424" lon="2.53963">
        <ele>82</ele>
        <time>2021-07-07T16:25:40Z</time>
      </trkpt>
      <trkpt lat="43.20492" lon="2.54852">
        <ele>85</ele>
        <time>2021-07-07T16:27:35Z</time>
      </trkpt>
      <trkpt lat="43.20557" lon="2.54995">
        <ele>80</ele>
        <time>2021-07-07T16:27:57Z</time>
      </trkpt>
      <trkpt lat="43.20595" lon="2.54999">
        <ele>76</ele>
        <time>2021-07-07T16:28:04Z</time>
      </trkpt>
      <trkpt lat="43.20609" lon="2.55414">
        <ele>80</ele>
        <time>2021-07-07T16:28:58Z</time>
      </trkpt>
      <trkpt lat="43.20622" lon="2.55499">
        <ele>81</ele>
        <time>2021-07-07T16:29:09Z</time>
      </trkpt>
      <trkpt lat="43.20739" lon="2.55746">
        <ele>82</ele>
        <time>2021-07-07T16:29:47Z</time>
      </trkpt>
      <trkpt lat="43.20816" lon="2.56101">
        <ele>80</ele>
        <time>2021-07-07T16:30:35Z</time>
      </trkpt>
      <trkpt lat="43.20729" lon="2.56369">
        <ele>80</ele>
        <time>2021-07-07T16:31:14Z</time>
      </trkpt>
      <trkpt lat="43.2062" lon="2.56829">
        <ele>77</ele>
        <time>2021-07-07T16:32:16Z</time>
      </trkpt>
      <trkpt lat="43.20703" lon="2.57067">
        <ele>76</ele>
        <time>2021-07-07T16:32:50Z</time>
      </trkpt>
      <trkpt lat="43.20759" lon="2.57323">
        <ele>77</ele>
        <time>2021-07-07T16:33:25Z</time>
      </trkpt>
      <trkpt lat="43.20883" lon="2.57572">
        <ele>76</ele>
        <time>2021-07-07T16:34:04Z</time>
      </trkpt>
      <trkpt lat="43.20963" lon="2.57776">
        <ele>77</ele>
        <time>2021-07-07T16:34:34Z</time>
      </trkpt>
      <trkpt lat="43.20973" lon="2.57949">
        <ele>78</ele>
        <time>2021-07-07T16:34:57Z</time>
      </trkpt>
      <trkpt lat="43.21085" lon="2.58453">
        <ele>75</ele>
        <time>2021-07-07T16:36:05Z</time>
      </trkpt>
      <trkpt lat="43.21163" lon="2.58738">
        <ele>69</ele>
        <time>2021-07-07T16:36:45Z</time>
      </trkpt>
      <trkpt lat="43.21213" lon="2.58961">
        <ele>69</ele>
        <time>2021-07-07T16:37:15Z</time>
      </trkpt>
      <trkpt lat="43.21318" lon="2.59196">
        <ele>68</ele>
        <time>2021-07-07T16:37:51Z</time>
      </trkpt>
      <trkpt lat="43.21477" lon="2.59427">
        <ele>69</ele>
        <time>2021-07-07T16:38:32Z</time>
      </trkpt>
      <trkpt lat="43.21647" lon="2.59616">
        <ele>68</ele>
        <time>2021-07-07T16:39:11Z</time>
      </trkpt>
      <trkpt lat="43.21822" lon="2.5968">
        <ele>67</ele>
        <time>2021-07-07T16:39:43Z</time>
      </trkpt>
      <trkpt lat="43.21933" lon="2.59649">
        <ele>63</ele>
        <time>2021-07-07T16:40:03Z</time>
      </trkpt>
      <trkpt lat="43.22032" lon="2.59732">
        <ele>64</ele>
        <time>2021-07-07T16:40:24Z</time>
      </trkpt>
      <trkpt lat="43.22233" lon="2.59828">
        <ele>63</ele>
        <time>2021-07-07T16:41:02Z</time>
      </trkpt>
      <trkpt lat="43.22503" lon="2.59905">
        <ele>63</ele>
        <time>2021-07-07T16:41:51Z</time>
      </trkpt>
      <trkpt lat="43.22916" lon="2.60096">
        <ele>64</ele>
        <time>2021-07-07T16:43:08Z</time>
      </trkpt>
      <trkpt lat="43.22947" lon="2.60163">
        <ele>64</ele>
        <time>2021-07-07T16:43:19Z</time>
      </trkpt>
      <trkpt lat="43.22946" lon="2.60347">
        <ele>63</ele>
        <time>2021-07-07T16:43:42Z</time>
      </trkpt>
      <trkpt lat="43.22997" lon="2.60621">
        <ele>59</ele>
        <time>2021-07-07T16:44:19Z</time>
      </trkpt>
      <trkpt lat="43.22962" lon="2.60636">
        <ele>59</ele>
        <time>2021-07-07T16:44:26Z</time>
      </trkpt>
      <trkpt lat="43.22975" lon="2.60735">
        <ele>59</ele>
        <time>2021-07-07T16:44:39Z</time>
      </trkpt>
      <trkpt lat="43.22977" lon="2.60849">
        <ele>60</ele>
        <time>2021-07-07T16:44:53Z</time>
      </trkpt>
      <trkpt lat="43.23068" lon="2.60879">
        <ele>60</ele>
        <time>2021-07-07T16:45:10Z</time>
      </trkpt>
      <trkpt lat="43.23161" lon="2.60986">
        <ele>59</ele>
        <time>2021-07-07T16:45:32Z</time>
      </trkpt>
      <trkpt lat="43.23415" lon="2.61305">
        <ele>57</ele>
        <time>2021-07-07T16:46:33Z</time>
      </trkpt>
      <trkpt lat="43.23407" lon="2.61482">
        <ele>59</ele>
        <time>2021-07-07T16:46:56Z</time>
      </trkpt>
      <trkpt lat="43.23303" lon="2.61701">
        <ele>59</ele>
        <time>2021-07-07T16:47:30Z</time>
      </trkpt>
      <trkpt lat="43.23146" lon="2.62016">
        <ele>58</ele>
        <time>2021-07-07T16:48:19Z</time>
      </trkpt>
      <trkpt lat="43.23128" lon="2.62224">
        <ele>57</ele>
        <time>2021-07-07T16:48:46Z</time>
      </trkpt>
      <trkpt lat="43.23128" lon="2.62722">
        <ele>58</ele>
        <time>2021-07-07T16:49:51Z</time>
      </trkpt>
      <trkpt lat="43.23104" lon="2.63431">
        <ele>59</ele>
        <time>2021-07-07T16:51:23Z</time>
      </trkpt>
      <trkpt lat="43.23016" lon="2.63623">
        <ele>59</ele>
        <time>2021-07-07T16:51:52Z</time>
      </trkpt>
      <trkpt lat="43.23059" lon="2.63801">
        <ele>56</ele>
        <time>2021-07-07T16:52:17Z</time>
      </trkpt>
      <trkpt lat="43.23247" lon="2.64205">
        <ele>54</ele>
        <time>2021-07-07T16:53:19Z</time>
      </trkpt>
      <trkpt lat="43.23502" lon="2.64779">
        <ele>54</ele>
        <time>2021-07-07T16:54:46Z</time>
      </trkpt>
      <trkpt lat="43.23745" lon="2.65223">
        <ele>56</ele>
        <time>2021-07-07T16:55:58Z</time>
      </trkpt>
      <trkpt lat="43.23987" lon="2.65524">
        <ele>54</ele>
        <time>2021-07-07T16:56:56Z</time>
      </trkpt>
      <trkpt lat="43.24145" lon="2.65644">
        <ele>55</ele>
        <time>2021-07-07T16:57:28Z</time>
      </trkpt>
      <trkpt lat="43.24306" lon="2.66027">
        <ele>52</ele>
        <time>2021-07-07T16:58:26Z</time>
      </trkpt>
      <trkpt lat="43.24466" lon="2.66129">
        <ele>53</ele>
        <time>2021-07-07T16:58:57Z</time>
      </trkpt>
      <trkpt lat="43.2476" lon="2.65947">
        <ele>56</ele>
        <time>2021-07-07T16:59:54Z</time>
      </trkpt>
      <trkpt lat="43.24819" lon="2.66004">
        <ele>55</ele>
        <time>2021-07-07T17:00:07Z</time>
      </trkpt>
      <trkpt lat="43.24712" lon="2.66608">
        <ele>52</ele>
        <time>2021-07-07T17:01:28Z</time>
      </trkpt>
      <trkpt lat="43.2478" lon="2.66802">
        <ele>53</ele>
        <time>2021-07-07T17:01:56Z</time>
      </trkpt>
      <trkpt lat="43.24911" lon="2.66886">
        <ele>54</ele>
        <time>2021-07-07T17:02:21Z</time>
      </trkpt>
      <trkpt lat="43.25005" lon="2.66841">
        <ele>55</ele>
        <time>2021-07-07T17:02:39Z</time>
      </trkpt>
      <trkpt lat="43.25127" lon="2.6655">
        <ele>57</ele>
        <time>2021-07-07T17:03:23Z</time>
      </trkpt>
      <trkpt lat="43.25338" lon="2.66769">
        <ele>55</ele>
        <time>2021-07-07T17:04:10Z</time>
      </trkpt>
      <trkpt lat="43.2555" lon="2.67192">
        <ele>54</ele>
        <time>2021-07-07T17:05:16Z</time>
      </trkpt>
      <trkpt lat="43.25919" lon="2.67673">
        <ele>55</ele>
        <time>2021-07-07T17:06:47Z</time>
      </trkpt>
      <trkpt lat="43.26" lon="2.6802">
        <ele>56</ele>
        <time>2021-07-07T17:07:34Z</time>
      </trkpt>
      <trkpt lat="43.2611" lon="2.6828">
        <ele>53</ele>
        <time>2021-07-07T17:08:13Z</time>
      </trkpt>
      <trkpt lat="43.26169" lon="2.68574">
        <ele>54</ele>
        <time>2021-07-07T17:08:52Z</time>
      </trkpt>
      <trkpt lat="43.26289" lon="2.69278">
        <ele>50</ele>
        <time>2021-07-07T17:10:26Z</time>
      </trkpt>
      <trkpt lat="43.26452" lon="2.69771">
        <ele>53</ele>
        <time>2021-07-07T17:11:36Z</time>
      </trkpt>
      <trkpt lat="43.26586" lon="2.70161">
        <ele>49</ele>
        <time>2021-07-07T17:12:32Z</time>
      </trkpt>
      <trkpt lat="43.26504" lon="2.70174">
        <ele>48</ele>
        <time>2021-07-07T17:12:47Z</time>
      </trkpt>
      <trkpt lat="43.26512" lon="2.70275">
        <ele>48</ele>
        <time>2021-07-07T17:13:00Z</time>
      </trkpt>
      <trkpt lat="43.26548" lon="2.70385">
        <ele>47</ele>
        <time>2021-07-07T17:13:16Z</time>
      </trkpt>
      <trkpt lat="43.26652" lon="2.70381">
        <ele>48</ele>
        <time>2021-07-07T17:13:34Z</time>
      </trkpt>
      <trkpt lat="43.26672" lon="2.70495">
        <ele>49</ele>
        <time>2021-07-07T17:13:49Z</time>
      </trkpt>
      <trkpt lat="43.26668" lon="2.70769">
        <ele>49</ele>
        <time>2021-07-07T17:14:25Z</time>
      </trkpt>
      <trkpt lat="43.26686" lon="2.71128">
        <ele>51</ele>
        <time>2021-07-07T17:15:11Z</time>
      </trkpt>
      <trkpt lat="43.26744" lon="2.71451">
        <ele>50</ele>
        <time>2021-07-07T17:15:54Z</time>
      </trkpt>
      <trkpt lat="43.26832" lon="2.71864">
        <ele>50</ele>
        <time>2021-07-07T17:16:50Z</time>
      </trkpt>
      <trkpt lat="43.26929" lon="2.72243">
        <ele>53</ele>
        <time>2021-07-07T17:17:42Z</time>
      </trkpt>
      <trkpt lat="43.26969" lon="2.72514">
        <ele>50</ele>
        <time>2021-07-07T17:18:18Z</time>
      </trkpt>
      <trkpt lat="43.26949" lon="2.72687">
        <ele>49</ele>
        <time>2021-07-07T17:18:41Z</time>
      </trkpt>
      <trkpt lat="43.26983" lon="2.7334">
        <ele>47</ele>
        <time>2021-07-07T17:20:06Z</time>
      </trkpt>
      <trkpt lat="43.26998" lon="2.73745">
        <ele>45</ele>
        <time>2021-07-07T17:20:58Z</time>
      </trkpt>
      <trkpt lat="43.26907" lon="2.73992">
        <ele>43</ele>
        <time>2021-07-07T17:21:34Z</time>
      </trkpt>
      <trkpt lat="43.2674" lon="2.73961">
        <ele>40</ele>
        <time>2021-07-07T17:22:04Z</time>
      </trkpt>
      <trkpt lat="43.26582" lon="2.74172">
        <ele>43</ele>
        <time>2021-07-07T17:22:43Z</time>
      </trkpt>
      <trkpt lat="43.26296" lon="2.74708">
        <ele>42</ele>
        <time>2021-07-07T17:24:09Z</time>
      </trkpt>
      <trkpt lat="43.26179" lon="2.74907">
        <ele>42</ele>
        <time>2021-07-07T17:24:42Z</time>
      </trkpt>
      <trkpt lat="43.2591" lon="2.75047">
        <ele>44</ele>
        <time>2021-07-07T17:25:34Z</time>
      </trkpt>
      <trkpt lat="43.25544" lon="2.75336">
        <ele>42</ele>
        <time>2021-07-07T17:26:49Z</time>
      </trkpt>
      <trkpt lat="43.25314" lon="2.75502">
        <ele>42</ele>
        <time>2021-07-07T17:27:35Z</time>
      </trkpt>
      <trkpt lat="43.25023" lon="2.75697">
        <ele>39</ele>
        <time>2021-07-07T17:28:33Z</time>
      </trkpt>
      <trkpt lat="43.24887" lon="2.75762">
        <ele>39</ele>
        <time>2021-07-07T17:28:58Z</time>
      </trkpt>
      <trkpt lat="43.24881" lon="2.75895">
        <ele>42</ele>
        <time>2021-07-07T17:29:15Z</time>
      </trkpt>
      <trkpt lat="43.24732" lon="2.76108">
        <ele>38</ele>
        <time>2021-07-07T17:29:54Z</time>
      </trkpt>
      <trkpt lat="43.24049" lon="2.76482">
        <ele>37</ele>
        <time>2021-07-07T17:32:05Z</time>
      </trkpt>
      <trkpt lat="43.24003" lon="2.76671">
        <ele>38</ele>
        <time>2021-07-07T17:32:30Z</time>
      </trkpt>
      <trkpt lat="43.23938" lon="2.76915">
        <ele>36</ele>
        <time>2021-07-07T17:33:04Z</time>
      </trkpt>
      <trkpt lat="43.23915" lon="2.77173">
        <ele>40</ele>
        <time>2021-07-07T17:33:38Z</time>
      </trkpt>
      <trkpt lat="43.23963" lon="2.7796">
        <ele>33</ele>
        <time>2021-07-07T17:35:20Z</time>
      </trkpt>
      <trkpt lat="43.23999" lon="2.78326">
        <ele>35</ele>
        <time>2021-07-07T17:36:08Z</time>
      </trkpt>
      <trkpt lat="43.24099" lon="2.78582">
        <ele>35</ele>
        <time>2021-07-07T17:36:46Z</time>
      </trkpt>
      <trkpt lat="43.24224" lon="2.78784">
        <ele>35</ele>
        <time>2021-07-07T17:37:20Z</time>
      </trkpt>
      <trkpt lat="43.24195" lon="2.79042">
        <ele>35</ele>
        <time>2021-07-07T17:37:54Z</time>
      </trkpt>
      <trkpt lat="43.24176" lon="2.79538">
        <ele>36</ele>
        <time>2021-07-07T17:38:58Z</time>
      </trkpt>
      <trkpt lat="43.24192" lon="2.79798">
        <ele>40</ele>
        <time>2021-07-07T17:39:32Z</time>
      </trkpt>
      <trkpt lat="43.2432" lon="2.80011">
        <ele>34</ele>
        <time>2021-07-07T17:40:08Z</time>
      </trkpt>
      <trkpt lat="43.24467" lon="2.80132">
        <ele>34</ele>
        <time>2021-07-07T17:40:38Z</time>
      </trkpt>
      <trkpt lat="43.24636" lon="2.80327">
        <ele>36</ele>
        <time>2021-07-07T17:41:18Z</time>
      </trkpt>
      <trkpt lat="43.24824" lon="2.80554">
        <ele>36</ele>
        <time>2021-07-07T17:42:02Z</time>
      </trkpt>
      <trkpt lat="43.24987" lon="2.80823">
        <ele>36</ele>
        <time>2021-07-07T17:42:48Z</time>
      </trkpt>
      <trkpt lat="43.25092" lon="2.81179">
        <ele>35</ele>
        <time>2021-07-07T17:43:37Z</time>
      </trkpt>
      <trkpt lat="43.25141" lon="2.81617">
        <ele>35</ele>
        <time>2021-07-07T17:44:35Z</time>
      </trkpt>
      <trkpt lat="43.25178" lon="2.81796">
        <ele>36</ele>
        <time>2021-07-07T17:44:59Z</time>
      </trkpt>
      <trkpt lat="43.25162" lon="2.82079">
        <ele>38</ele>
        <time>2021-07-07T17:45:36Z</time>
      </trkpt>
      <trkpt lat="43.2504" lon="2.82375">
        <ele>33</ele>
        <time>2021-07-07T17:46:20Z</time>
      </trkpt>
      <trkpt lat="43.24977" lon="2.82705">
        <ele>37</ele>
        <time>2021-07-07T17:47:04Z</time>
      </trkpt>
      <trkpt lat="43.24865" lon="2.83136">
        <ele>36</ele>
        <time>2021-07-07T17:48:03Z</time>
      </trkpt>
      <trkpt lat="43.24862" lon="2.83382">
        <ele>35</ele>
        <time>2021-07-07T17:48:35Z</time>
      </trkpt>
      <trkpt lat="43.24902" lon="2.83374">
        <ele>40</ele>
        <time>2021-07-07T17:48:42Z</time>
      </trkpt>
      <trkpt lat="43.24895" lon="2.8349">
        <ele>36</ele>
        <time>2021-07-07T17:48:57Z</time>
      </trkpt>
      <trkpt lat="43.24894" lon="2.83772">
        <ele>33</ele>
        <time>2021-07-07T17:49:34Z</time>
      </trkpt>
      <trkpt lat="43.24889" lon="2.83918">
        <ele>33</ele>
        <time>2021-07-07T17:49:53Z</time>
      </trkpt>
      <trkpt lat="43.24931" lon="2.8395">
        <ele>33</ele>
        <time>2021-07-07T17:50:01Z</time>
      </trkpt>
      <trkpt lat="43.25064" lon="2.83925">
        <ele>35</ele>
        <time>2021-07-07T17:50:25Z</time>
      </trkpt>
      <trkpt lat="43.25181" lon="2.83899">
        <ele>37</ele>
        <time>2021-07-07T17:50:46Z</time>
      </trkpt>
      <trkpt lat="43.25317" lon="2.83824">
        <ele>36</ele>
        <time>2021-07-07T17:51:12Z</time>
      </trkpt>
      <trkpt lat="43.25435" lon="2.83943">
        <ele>32</ele>
        <time>2021-07-07T17:51:39Z</time>
      </trkpt>
      <trkpt lat="43.25448" lon="2.83985">
        <ele>32</ele>
        <time>2021-07-07T17:51:44Z</time>
      </trkpt>
      <trkpt lat="43.25454" lon="2.84102">
        <ele>40</ele>
        <time>2021-07-07T17:52:00Z</time>
      </trkpt>
      <trkpt lat="43.25317" lon="2.84184">
        <ele>38</ele>
        <time>2021-07-07T17:52:26Z</time>
      </trkpt>
      <trkpt lat="43.25156" lon="2.843">
        <ele>38</ele>
        <time>2021-07-07T17:52:59Z</time>
      </trkpt>
      <trkpt lat="43.2495" lon="2.84418">
        <ele>39</ele>
        <time>2021-07-07T17:53:38Z</time>
      </trkpt>
      <trkpt lat="43.24875" lon="2.84564">
        <ele>39</ele>
        <time>2021-07-07T17:54:01Z</time>
      </trkpt>
      <trkpt lat="43.24835" lon="2.84858">
        <ele>37</ele>
        <time>2021-07-07T17:54:40Z</time>
      </trkpt>
      <trkpt lat="43.24811" lon="2.85365">
        <ele>37</ele>
        <time>2021-07-07T17:55:46Z</time>
      </trkpt>
      <trkpt lat="43.2476" lon="2.85826">
        <ele>40</ele>
        <time>2021-07-07T17:56:47Z</time>
      </trkpt>
      <trkpt lat="43.24732" lon="2.86036">
        <ele>42</ele>
        <time>2021-07-07T17:57:14Z</time>
      </trkpt>
      <trkpt lat="43.24712" lon="2.86097">
        <ele>43</ele>
        <time>2021-07-07T17:57:23Z</time>
      </trkpt>
      <trkpt lat="43.24686" lon="2.86341">
        <ele>40</ele>
        <time>2021-07-07T17:57:55Z</time>
      </trkpt>
      <trkpt lat="43.24695" lon="2.86561">
        <ele>37</ele>
        <time>2021-07-07T17:58:23Z</time>
      </trkpt>
      <trkpt lat="43.24705" lon="2.8666">
        <ele>34</ele>
        <time>2021-07-07T17:58:36Z</time>
      </trkpt>
      <trkpt lat="43.24746" lon="2.86758">
        <ele>36</ele>
        <time>2021-07-07T17:58:51Z</time>
      </trkpt>
      <trkpt lat="43.24815" lon="2.86873">
        <ele>34</ele>
        <time>2021-07-07T17:59:10Z</time>
      </trkpt>
      <trkpt lat="43.24832" lon="2.87174">
        <ele>33</ele>
        <time>2021-07-07T17:59:49Z</time>
      </trkpt>
      <trkpt lat="43.24821" lon="2.87277">
        <ele>33</ele>
        <time>2021-07-07T18:00:03Z</time>
      </trkpt>
      <trkpt lat="43.24826" lon="2.87346">
        <ele>34</ele>
        <time>2021-07-07T18:00:12Z</time>
      </trkpt>
      <trkpt lat="43.24867" lon="2.87394">
        <ele>37</ele>
        <time>2021-07-07T18:00:21Z</time>
      </trkpt>
      <trkpt lat="43.24916" lon="2.87506">
        <ele>38</ele>
        <time>2021-07-07T18:00:38Z</time>
      </trkpt>
      <trkpt lat="43.24927" lon="2.87649">
        <ele>38</ele>
        <time>2021-07-07T18:00:57Z</time>
      </trkpt>
      <trkpt lat="43.24932" lon="2.87756">
        <ele>38</ele>
        <time>2021-07-07T18:01:11Z</time>
      </trkpt>
      <trkpt lat="43.24961" lon="2.87822">
        <ele>36</ele>
        <time>2021-07-07T18:01:21Z</time>
      </trkpt>
      <trkpt lat="43.25026" lon="2.87901">
        <ele>34</ele>
        <time>2021-07-07T18:01:36Z</time>
      </trkpt>
      <trkpt lat="43.25113" lon="2.87992">
        <ele>37</ele>
        <time>2021-07-07T18:01:56Z</time>
      </trkpt>
      <trkpt lat="43.25211" lon="2.88089">
        <ele>36</ele>
        <time>2021-07-07T18:02:17Z</time>
      </trkpt>
      <trkpt lat="43.25296" lon="2.88188">
        <ele>36</ele>
        <time>2021-07-07T18:02:37Z</time>
      </trkpt>
      <trkpt lat="43.25378" lon="2.88402">
        <ele>36</ele>
        <time>2021-07-07T18:03:08Z</time>
      </trkpt>
      <trkpt lat="43.25447" lon="2.88544">
        <ele>37</ele>
        <time>2021-07-07T18:03:31Z</time>
      </trkpt>
      <trkpt lat="43.25562" lon="2.88613">
        <ele>36</ele>
        <time>2021-07-07T18:03:53Z</time>
      </trkpt>
      <trkpt lat="43.25668" lon="2.88673">
        <ele>36</ele>
        <time>2021-07-07T18:04:13Z</time>
      </trkpt>
      <trkpt lat="43.25787" lon="2.88785">
        <ele>34</ele>
        <time>2021-07-07T18:04:39Z</time>
      </trkpt>
      <trkpt lat="43.25838" lon="2.88924">
        <ele>35</ele>
        <time>2021-07-07T18:04:59Z</time>
      </trkpt>
      <trkpt lat="43.25773" lon="2.89241">
        <ele>34</ele>
        <time>2021-07-07T18:05:42Z</time>
      </trkpt>
      <trkpt lat="43.25747" lon="2.89483">
        <ele>32</ele>
        <time>2021-07-07T18:06:14Z</time>
      </trkpt>
      <trkpt lat="43.25857" lon="2.89757">
        <ele>36</ele>
        <time>2021-07-07T18:06:54Z</time>
      </trkpt>
      <trkpt lat="43.26091" lon="2.90089">
        <ele>34</ele>
        <time>2021-07-07T18:07:54Z</time>
      </trkpt>
      <trkpt lat="43.26278" lon="2.90407">
        <ele>35</ele>
        <time>2021-07-07T18:08:47Z</time>
      </trkpt>
      <trkpt lat="43.2638" lon="2.90454">
        <ele>35</ele>
        <time>2021-07-07T18:09:06Z</time>
      </trkpt>
      <trkpt lat="43.26572" lon="2.90385">
        <ele>36</ele>
        <time>2021-07-07T18:09:41Z</time>
      </trkpt>
      <trkpt lat="43.26738" lon="2.9031">
        <ele>36</ele>
        <time>2021-07-07T18:10:12Z</time>
      </trkpt>
      <trkpt lat="43.26869" lon="2.90331">
        <ele>36</ele>
        <time>2021-07-07T18:10:36Z</time>
      </trkpt>
      <trkpt lat="43.27182" lon="2.90519">
        <ele>34</ele>
        <time>2021-07-07T18:11:37Z</time>
      </trkpt>
      <trkpt lat="43.27289" lon="2.90963">
        <ele>35</ele>
        <time>2021-07-07T18:12:37Z</time>
      </trkpt>
      <trkpt lat="43.2735" lon="2.91295">
        <ele>35</ele>
        <time>2021-07-07T18:13:22Z</time>
      </trkpt>
      <trkpt lat="43.2746" lon="2.91508">
        <ele>34</ele>
        <time>2021-07-07T18:13:56Z</time>
      </trkpt>
      <trkpt lat="43.2792" lon="2.91403">
        <ele>38</ele>
        <time>2021-07-07T18:15:18Z</time>
      </trkpt>
      <trkpt lat="43.28054" lon="2.91594">
        <ele>31</ele>
        <time>2021-07-07T18:15:53Z</time>
      </trkpt>
      <trkpt lat="43.28177" lon="2.91793">
        <ele>36</ele>
        <time>2021-07-07T18:16:27Z</time>
      </trkpt>
      <trkpt lat="43.28332" lon="2.92164">
        <ele>34</ele>
        <time>2021-07-07T18:17:22Z</time>
      </trkpt>
      <trkpt lat="43.28519" lon="2.92219">
        <ele>37</ele>
        <time>2021-07-07T18:17:56Z</time>
      </trkpt>
      <trkpt lat="43.2911" lon="2.92407">
        <ele>33</ele>
        <time>2021-07-07T18:19:44Z</time>
      </trkpt>
      <trkpt lat="43.29721" lon="2.92585">
        <ele>37</ele>
        <time>2021-07-07T18:21:35Z</time>
      </trkpt>
      <trkpt lat="43.29957" lon="2.92639">
        <ele>36</ele>
        <time>2021-07-07T18:22:18Z</time>
      </trkpt>
      <trkpt lat="43.30584" lon="2.92702">
        <ele>34</ele>
        <time>2021-07-07T18:24:10Z</time>
      </trkpt>
      <trkpt lat="43.30724" lon="2.92688">
        <ele>35</ele>
        <time>2021-07-07T18:24:35Z</time>
      </trkpt>
      <trkpt lat="43.30912" lon="2.92419">
        <ele>34</ele>
        <time>2021-07-07T18:25:23Z</time>
      </trkpt>
      <trkpt lat="43.31043" lon="2.9213">
        <ele>34</ele>
        <time>2021-07-07T18:26:07Z</time>
      </trkpt>
      <trkpt lat="43.31237" lon="2.91726">
        <ele>38</ele>
        <time>2021-07-07T18:27:10Z</time>
      </trkpt>
      <trkpt lat="43.31353" lon="2.91849">
        <ele>36</ele>
        <time>2021-07-07T18:27:36Z</time>
      </trkpt>
      <trkpt lat="43.31263" lon="2.92087">
        <ele>37</ele>
        <time>2021-07-07T18:28:10Z</time>
      </trkpt>
      <trkpt lat="43.31332" lon="2.92404">
        <ele>37</ele>
        <time>2021-07-07T18:28:53Z</time>
      </trkpt>
      <trkpt lat="43.31563" lon="2.92917">
        <ele>33</ele>
        <time>2021-07-07T18:30:11Z</time>
      </trkpt>
      <trkpt lat="43.31495" lon="2.93415">
        <ele>35</ele>
        <time>2021-07-07T18:31:17Z</time>
      </trkpt>
      <trkpt lat="43.31636" lon="2.93761">
        <ele>33</ele>
        <time>2021-07-07T18:32:08Z</time>
      </trkpt>
      <trkpt lat="43.31573" lon="2.93978">
        <ele>36</ele>
        <time>2021-07-07T18:32:39Z</time>
      </trkpt>
      <trkpt lat="43.3161" lon="2.94346">
        <ele>34</ele>
        <time>2021-07-07T18:33:27Z</time>
      </trkpt>
      <trkpt lat="43.31248" lon="2.9457">
        <ele>35</ele>
        <time>2021-07-07T18:34:37Z</time>
      </trkpt>
      <trkpt lat="43.31263" lon="2.95284">
        <ele>33</ele>
        <time>2021-07-07T18:36:10Z</time>
      </trkpt>
      <trkpt lat="43.31437" lon="2.95688">
        <ele>38</ele>
        <time>2021-07-07T18:37:11Z</time>
      </trkpt>
      <trkpt lat="43.31326" lon="2.9615">
        <ele>36</ele>
        <time>2021-07-07T18:38:13Z</time>
      </trkpt>
      <trkpt lat="43.31442" lon="2.96547">
        <ele>35</ele>
        <time>2021-07-07T18:39:09Z</time>
      </trkpt>
      <trkpt lat="43.31757" lon="2.97053">
        <ele>42</ele>
        <time>2021-07-07T18:40:35Z</time>
      </trkpt>
      <trkpt lat="43.31773" lon="2.97276">
        <ele>37</ele>
        <time>2021-07-07T18:41:04Z</time>
      </trkpt>
      <trkpt lat="43.31647" lon="2.97551">
        <ele>37</ele>
        <time>2021-07-07T18:41:46Z</time>
      </trkpt>
      <trkpt lat="43.31747" lon="2.97998">
        <ele>37</ele>
        <time>2021-07-07T18:42:47Z</time>
      </trkpt>
      <trkpt lat="43.31862" lon="2.98741">
        <ele>34</ele>
        <time>2021-07-07T18:44:25Z</time>
      </trkpt>
      <trkpt lat="43.3202" lon="2.99073">
        <ele>35</ele>
        <time>2021-07-07T18:45:16Z</time>
      </trkpt>
      <trkpt lat="43.32219" lon="2.99138">
        <ele>32</ele>
        <time>2021-07-07T18:45:53Z</time>
      </trkpt>
      <trkpt lat="43.3234" lon="2.98799">
        <ele>37</ele>
        <time>2021-07-07T18:46:42Z</time>
      </trkpt>
      <trkpt lat="43.32471" lon="2.99066">
        <ele>38</ele>
        <time>2021-07-07T18:47:23Z</time>
      </trkpt>
      <trkpt lat="43.32534" lon="2.99478">
        <ele>36</ele>
        <time>2021-07-07T18:48:18Z</time>
      </trkpt>
      <trkpt lat="43.3244" lon="3.00084">
        <ele>35</ele>
        <time>2021-07-07T18:49:38Z</time>
      </trkpt>
      <trkpt lat="43.3214" lon="3.00611">
        <ele>34</ele>
        <time>2021-07-07T18:51:05Z</time>
      </trkpt>
      <trkpt lat="43.31799" lon="3.01246">
        <ele>37</ele>
        <time>2021-07-07T18:52:47Z</time>
      </trkpt>
      <trkpt lat="43.31836" lon="3.01419">
        <ele>34</ele>
        <time>2021-07-07T18:53:10Z</time>
      </trkpt>
      <trkpt lat="43.32193" lon="3.0139">
        <ele>32</ele>
        <time>2021-07-07T18:54:14Z</time>
      </trkpt>
      <trkpt lat="43.32545" lon="3.01239">
        <ele>30</ele>
        <time>2021-07-07T18:55:19Z</time>
      </trkpt>
      <trkpt lat="43.32881" lon="3.00683">
        <ele>36</ele>
        <time>2021-07-07T18:56:53Z</time>
      </trkpt>
      <trkpt lat="43.3298" lon="3.00849">
        <ele>33</ele>
        <time>2021-07-07T18:57:21Z</time>
      </trkpt>
      <trkpt lat="43.32923" lon="3.01318">
        <ele>35</ele>
        <time>2021-07-07T18:58:22Z</time>
      </trkpt>
      <trkpt lat="43.32881" lon="3.01506">
        <ele>32</ele>
        <time>2021-07-07T18:58:48Z</time>
      </trkpt>
      <trkpt lat="43.33022" lon="3.01636">
        <ele>35</ele>
        <time>2021-07-07T18:59:18Z</time>
      </trkpt>
      <trkpt lat="43.32923" lon="3.01708">
        <ele>36</ele>
        <time>2021-07-07T18:59:38Z</time>
      </trkpt>
      <trkpt lat="43.32755" lon="3.01686">
        <ele>30</ele>
        <time>2021-07-07T19:00:08Z</time>
      </trkpt>
      <trkpt lat="43.32639" lon="3.01823">
        <ele>34</ele>
        <time>2021-07-07T19:00:35Z</time>
      </trkpt>
      <trkpt lat="43.32434" lon="3.01823">
        <ele>32</ele>
        <time>2021-07-07T19:01:12Z</time>
      </trkpt>
      <trkpt lat="43.32455" lon="3.02004">
        <ele>30</ele>
        <time>2021-07-07T19:01:35Z</time>
      </trkpt>
      <trkpt lat="43.32655" lon="3.02061">
        <ele>36</ele>
        <time>2021-07-07T19:02:12Z</time>
      </trkpt>
      <trkpt lat="43.32634" lon="3.02466">
        <ele>36</ele>
        <time>2021-07-07T19:03:04Z</time>
      </trkpt>
      <trkpt lat="43.32697" lon="3.02928">
        <ele>34</ele>
        <time>2021-07-07T19:04:05Z</time>
      </trkpt>
      <trkpt lat="43.32802" lon="3.03151">
        <ele>34</ele>
        <time>2021-07-07T19:04:39Z</time>
      </trkpt>
      <trkpt lat="43.33054" lon="3.02863">
        <ele>40</ele>
        <time>2021-07-07T19:05:38Z</time>
      </trkpt>
      <trkpt lat="43.33217" lon="3.0292">
        <ele>38</ele>
        <time>2021-07-07T19:06:08Z</time>
      </trkpt>
      <trkpt lat="43.33143" lon="3.03238">
        <ele>34</ele>
        <time>2021-07-07T19:06:51Z</time>
      </trkpt>
      <trkpt lat="43.33049" lon="3.03844">
        <ele>34</ele>
        <time>2021-07-07T19:08:11Z</time>
      </trkpt>
      <trkpt lat="43.33043" lon="3.04118">
        <ele>36</ele>
        <time>2021-07-07T19:08:47Z</time>
      </trkpt>
      <trkpt lat="43.33154" lon="3.04393">
        <ele>35</ele>
        <time>2021-07-07T19:09:27Z</time>
      </trkpt>
      <trkpt lat="43.33017" lon="3.04898">
        <ele>36</ele>
        <time>2021-07-07T19:10:37Z</time>
      </trkpt>
      <trkpt lat="43.33075" lon="3.05483">
        <ele>36</ele>
        <time>2021-07-07T19:11:53Z</time>
      </trkpt>
      <trkpt lat="43.33133" lon="3.06017">
        <ele>38</ele>
        <time>2021-07-07T19:13:03Z</time>
      </trkpt>
      <trkpt lat="43.33106" lon="3.06507">
        <ele>38</ele>
        <time>2021-07-07T19:14:07Z</time>
      </trkpt>
      <trkpt lat="43.33001" lon="3.06731">
        <ele>37</ele>
        <time>2021-07-07T19:14:41Z</time>
      </trkpt>
      <trkpt lat="43.32744" lon="3.06897">
        <ele>32</ele>
        <time>2021-07-07T19:15:32Z</time>
      </trkpt>
      <trkpt lat="43.32539" lon="3.07381">
        <ele>35</ele>
        <time>2021-07-07T19:16:44Z</time>
      </trkpt>
      <trkpt lat="43.32298" lon="3.07583">
        <ele>36</ele>
        <time>2021-07-07T19:17:35Z</time>
      </trkpt>
      <trkpt lat="43.3202" lon="3.07503">
        <ele>37</ele>
        <time>2021-07-07T19:18:25Z</time>
      </trkpt>
      <trkpt lat="43.31841" lon="3.0728">
        <ele>40</ele>
        <time>2021-07-07T19:19:08Z</time>
      </trkpt>
      <trkpt lat="43.31789" lon="3.07106">
        <ele>34</ele>
        <time>2021-07-07T19:19:33Z</time>
      </trkpt>
      <trkpt lat="43.31584" lon="3.0689">
        <ele>35</ele>
        <time>2021-07-07T19:20:18Z</time>
      </trkpt>
      <trkpt lat="43.31395" lon="3.06962">
        <ele>29</ele>
        <time>2021-07-07T19:20:53Z</time>
      </trkpt>
      <trkpt lat="43.31279" lon="3.07359">
        <ele>37</ele>
        <time>2021-07-07T19:21:49Z</time>
      </trkpt>
      <trkpt lat="43.31069" lon="3.07561">
        <ele>33</ele>
        <time>2021-07-07T19:22:34Z</time>
      </trkpt>
      <trkpt lat="43.30975" lon="3.07864">
        <ele>37</ele>
        <time>2021-07-07T19:23:17Z</time>
      </trkpt>
      <trkpt lat="43.30801" lon="3.07879">
        <ele>38</ele>
        <time>2021-07-07T19:23:48Z</time>
      </trkpt>
      <trkpt lat="43.30596" lon="3.07713">
        <ele>31</ele>
        <time>2021-07-07T19:24:30Z</time>
      </trkpt>
      <trkpt lat="43.30491" lon="3.0798">
        <ele>36</ele>
        <time>2021-07-07T19:25:10Z</time>
      </trkpt>
      <trkpt lat="43.30449" lon="3.0816">
        <ele>31</ele>
        <time>2021-07-07T19:25:34Z</time>
      </trkpt>
      <trkpt lat="43.30575" lon="3.0837">
        <ele>39</ele>
        <time>2021-07-07T19:26:09Z</time>
      </trkpt>
      <trkpt lat="43.30497" lon="3.08673">
        <ele>35</ele>
        <time>2021-07-07T19:26:51Z</time>
      </trkpt>
      <trkpt lat="43.30413" lon="3.08983">
        <ele>35</ele>
        <time>2021-07-07T19:27:34Z</time>
      </trkpt>
      <trkpt lat="43.30523" lon="3.09416">
        <ele>36</ele>
        <time>2021-07-07T19:28:33Z</time>
      </trkpt>
      <trkpt lat="43.30512" lon="3.09705">
        <ele>34</ele>
        <time>2021-07-07T19:29:11Z</time>
      </trkpt>
      <trkpt lat="43.30554" lon="3.10852">
        <ele>36</ele>
        <time>2021-07-07T19:31:39Z</time>
      </trkpt>
      <trkpt lat="43.30497" lon="3.11285">
        <ele>39</ele>
        <time>2021-07-07T19:32:36Z</time>
      </trkpt>
      <trkpt lat="43.30344" lon="3.1148">
        <ele>31</ele>
        <time>2021-07-07T19:33:14Z</time>
      </trkpt>
      <trkpt lat="43.30397" lon="3.11935">
        <ele>35</ele>
        <time>2021-07-07T19:34:13Z</time>
      </trkpt>
      <trkpt lat="43.30476" lon="3.12317">
        <ele>37</ele>
        <time>2021-07-07T19:35:05Z</time>
      </trkpt>
      <trkpt lat="43.3068" lon="3.12592">
        <ele>48</ele>
        <time>2021-07-07T19:35:55Z</time>
      </trkpt>
      <trkpt lat="43.30843" lon="3.12895">
        <ele>40</ele>
        <time>2021-07-07T19:36:44Z</time>
      </trkpt>
      <trkpt lat="43.31195" lon="3.13371">
        <ele>38</ele>
        <time>2021-07-07T19:38:12Z</time>
      </trkpt>
      <trkpt lat="43.31542" lon="3.13653">
        <ele>37</ele>
        <time>2021-07-07T19:39:24Z</time>
      </trkpt>
      <trkpt lat="43.31589" lon="3.13876">
        <ele>37</ele>
        <time>2021-07-07T19:39:54Z</time>
      </trkpt>
      <trkpt lat="43.31558" lon="3.14014">
        <ele>40</ele>
        <time>2021-07-07T19:40:13Z</time>
      </trkpt>
      <trkpt lat="43.31737" lon="3.14115">
        <ele>30</ele>
        <time>2021-07-07T19:40:47Z</time>
      </trkpt>
      <trkpt lat="43.31784" lon="3.14147">
        <ele>29</ele>
        <time>2021-07-07T19:40:56Z</time>
      </trkpt>
      <trkpt lat="43.31835" lon="3.14212">
        <ele>28</ele>
        <time>2021-07-07T19:41:09Z</time>
      </trkpt>
      <trkpt lat="43.31797" lon="3.14317">
        <ele>28</ele>
        <time>2021-07-07T19:41:24Z</time>
      </trkpt>
      <trkpt lat="43.31845" lon="3.14359">
        <ele>27</ele>
        <time>2021-07-07T19:41:34Z</time>
      </trkpt>
      <trkpt lat="43.31869" lon="3.14244">
        <ele>28</ele>
        <time>2021-07-07T19:41:50Z</time>
      </trkpt>
      <trkpt lat="43.3183" lon="3.14333">
        <ele>28</ele>
        <time>2021-07-07T19:42:03Z</time>
      </trkpt>
      <trkpt lat="43.31804" lon="3.1429">
        <ele>28</ele>
        <time>2021-07-07T19:42:10Z</time>
      </trkpt>
      <trkpt lat="43.31835" lon="3.14197">
        <ele>28</ele>
        <time>2021-07-07T19:42:23Z</time>
      </trkpt>
      <trkpt lat="43.31773" lon="3.14132">
        <ele>29</ele>
        <time>2021-07-07T19:42:37Z</time>
      </trkpt>
      <trkpt lat="43.31679" lon="3.14077">
        <ele>33</ele>
        <time>2021-07-07T19:42:55Z</time>
      </trkpt>
      <trkpt lat="43.31563" lon="3.14">
        <ele>40</ele>
        <time>2021-07-07T19:43:18Z</time>
      </trkpt>
      <trkpt lat="43.31542" lon="3.14097">
        <ele>37</ele>
        <time>2021-07-07T19:43:32Z</time>
      </trkpt>
      <trkpt lat="43.31449" lon="3.14281">
        <ele>34</ele>
        <time>2021-07-07T19:44:01Z</time>
      </trkpt>
      <trkpt lat="43.31436" lon="3.14389">
        <ele>36</ele>
        <time>2021-07-07T19:44:15Z</time>
      </trkpt>
      <trkpt lat="43.31454" lon="3.14507">
        <ele>36</ele>
        <time>2021-07-07T19:44:30Z</time>
      </trkpt>
      <trkpt lat="43.3153" lon="3.14702">
        <ele>36</ele>
        <time>2021-07-07T19:44:59Z</time>
      </trkpt>
      <trkpt lat="43.31598" lon="3.14835">
        <ele>38</ele>
        <time>2021-07-07T19:45:20Z</time>
      </trkpt>
      <trkpt lat="43.31665" lon="3.14928">
        <ele>38</ele>
        <time>2021-07-07T19:45:37Z</time>
      </trkpt>
      <trkpt lat="43.31733" lon="3.14957">
        <ele>40</ele>
        <time>2021-07-07T19:45:50Z</time>
      </trkpt>
      <trkpt lat="43.31871" lon="3.14981">
        <ele>41</ele>
        <time>2021-07-07T19:46:14Z</time>
      </trkpt>
      <trkpt lat="43.3196" lon="3.1504">
        <ele>37</ele>
        <time>2021-07-07T19:46:32Z</time>
      </trkpt>
      <trkpt lat="43.31999" lon="3.15103">
        <ele>39</ele>
        <time>2021-07-07T19:46:43Z</time>
      </trkpt>
      <trkpt lat="43.32009" lon="3.15228">
        <ele>42</ele>
        <time>2021-07-07T19:46:59Z</time>
      </trkpt>
      <trkpt lat="43.32044" lon="3.1532">
        <ele>40</ele>
        <time>2021-07-07T19:47:12Z</time>
      </trkpt>
      <trkpt lat="43.322" lon="3.15474">
        <ele>36</ele>
        <time>2021-07-07T19:47:47Z</time>
      </trkpt>
      <trkpt lat="43.32291" lon="3.15582">
        <ele>36</ele>
        <time>2021-07-07T19:48:08Z</time>
      </trkpt>
      <trkpt lat="43.32316" lon="3.15668">
        <ele>35</ele>
        <time>2021-07-07T19:48:20Z</time>
      </trkpt>
      <trkpt lat="43.32313" lon="3.15755">
        <ele>37</ele>
        <time>2021-07-07T19:48:31Z</time>
      </trkpt>
      <trkpt lat="43.32222" lon="3.1601">
        <ele>36</ele>
        <time>2021-07-07T19:49:08Z</time>
      </trkpt>
      <trkpt lat="43.32193" lon="3.16131">
        <ele>39</ele>
        <time>2021-07-07T19:49:24Z</time>
      </trkpt>
      <trkpt lat="43.3219" lon="3.16224">
        <ele>38</ele>
        <time>2021-07-07T19:49:36Z</time>
      </trkpt>
      <trkpt lat="43.32221" lon="3.16317">
        <ele>36</ele>
        <time>2021-07-07T19:49:50Z</time>
      </trkpt>
      <trkpt lat="43.32316" lon="3.16478">
        <ele>36</ele>
        <time>2021-07-07T19:50:17Z</time>
      </trkpt>
      <trkpt lat="43.32344" lon="3.16546">
        <ele>37</ele>
        <time>2021-07-07T19:50:27Z</time>
      </trkpt>
      <trkpt lat="43.32352" lon="3.16644">
        <ele>39</ele>
        <time>2021-07-07T19:50:39Z</time>
      </trkpt>
      <trkpt lat="43.32343" lon="3.16733">
        <ele>39</ele>
        <time>2021-07-07T19:50:51Z</time>
      </trkpt>
      <trkpt lat="43.32354" lon="3.1681">
        <ele>36</ele>
        <time>2021-07-07T19:51:01Z</time>
      </trkpt>
      <trkpt lat="43.32379" lon="3.16895">
        <ele>35</ele>
        <time>2021-07-07T19:51:13Z</time>
      </trkpt>
      <trkpt lat="43.3245" lon="3.17066">
        <ele>38</ele>
        <time>2021-07-07T19:51:39Z</time>
      </trkpt>
      <trkpt lat="43.32493" lon="3.17096">
        <ele>38</ele>
        <time>2021-07-07T19:51:47Z</time>
      </trkpt>
      <trkpt lat="43.32579" lon="3.17065">
        <ele>38</ele>
        <time>2021-07-07T19:52:03Z</time>
      </trkpt>
      <trkpt lat="43.32705" lon="3.17037">
        <ele>35</ele>
        <time>2021-07-07T19:52:26Z</time>
      </trkpt>
      <trkpt lat="43.32684" lon="3.16894">
        <ele>29</ele>
        <time>2021-07-07T19:52:45Z</time>
      </trkpt>
      <trkpt lat="43.32655" lon="3.16734">
        <ele>30</ele>
        <time>2021-07-07T19:53:06Z</time>
      </trkpt>
      <trkpt lat="43.32622" lon="3.1652">
        <ele>30</ele>
        <time>2021-07-07T19:53:34Z</time>
      </trkpt>
      <trkpt lat="43.32637" lon="3.16431">
        <ele>29</ele>
        <time>2021-07-07T19:53:46Z</time>
      </trkpt>
      <trkpt lat="43.32704" lon="3.16192">
        <ele>33</ele>
        <time>2021-07-07T19:54:19Z</time>
      </trkpt>
      <trkpt lat="43.32658" lon="3.16154">
        <ele>36</ele>
        <time>2021-07-07T19:54:29Z</time>
      </trkpt>
      <trkpt lat="43.32592" lon="3.16105">
        <ele>37</ele>
        <time>2021-07-07T19:54:42Z</time>
      </trkpt>
      <trkpt lat="43.3257" lon="3.16144">
        <ele>38</ele>
        <time>2021-07-07T19:54:48Z</time>
      </trkpt>
      <trkpt lat="43.32564" lon="3.16177">
        <ele>38</ele>
        <time>2021-07-07T19:54:53Z</time>
      </trkpt>
      <trkpt lat="43.32583" lon="3.16211">
        <ele>37</ele>
        <time>2021-07-07T19:54:58Z</time>
      </trkpt>
      <trkpt lat="43.32616" lon="3.16172">
        <ele>38</ele>
        <time>2021-07-07T19:55:06Z</time>
      </trkpt>
    </trkseg>
  </trk>
</gpx>